Time;durP1;ratioP1;P1;durP2;ratioP2;P2;SDS_P1;SDS_P2;PMS_P1;PMS_P2;Temp;Humidity;BMP_temperature;BMP_pressure;BME280_temperature;BME280_humidity;BME280_pressure;Samples;Min_cycle;Max_cycle;Signal;HPM_P1;HPM_P2
2024/04/26 00:01:00;;;;;;;18.20;12.30;;;7.30;99.90;;;;;;5456846;26;20017;-60
2024/04/26 00:03:27;;;;;;;21.13;11.40;;;7.30;99.90;;;;;;5434563;26;19998;-60
2024/04/26 00:05:54;;;;;;;18.77;11.13;;;7.30;99.90;;;;;;5436928;26;20015;-59
2024/04/26 00:08:21;;;;;;;17.05;10.82;;;7.20;99.90;;;;;;5435818;26;20002;-60
2024/04/26 00:10:48;;;;;;;18.92;12.68;;;7.20;99.90;;;;;;5428446;26;20003;-60
2024/04/26 00:13:15;;;;;;;22.40;11.80;;;7.20;99.90;;;;;;5430711;26;20011;-60
2024/04/26 00:15:41;;;;;;;20.67;11.13;;;7.20;99.90;;;;;;5409362;26;20389;-60
2024/04/26 00:18:08;;;;;;;14.63;10.50;;;7.20;99.90;;;;;;5439384;26;19998;-58
2024/04/26 00:20:35;;;;;;;17.58;10.18;;;7.10;99.90;;;;;;5441692;26;20007;-61
2024/04/26 00:23:02;;;;;;;20.05;11.65;;;7.10;99.90;;;;;;5427542;26;19998;-59
2024/04/26 00:25:29;;;;;;;18.77;10.63;;;7.10;99.90;;;;;;5440496;26;20011;-59
2024/04/26 00:27:56;;;;;;;15.05;10.20;;;7.10;99.90;;;;;;5435333;26;20103;-60
2024/04/26 00:30:23;;;;;;;17.65;10.20;;;7.10;99.90;;;;;;5437959;26;20003;-60
2024/04/26 00:32:50;;;;;;;19.50;10.07;;;7.10;99.90;;;;;;5431679;26;20071;-59
2024/04/26 00:35:17;;;;;;;18.10;10.80;;;7.00;99.90;;;;;;5439923;26;20003;-60
2024/04/26 00:37:44;;;;;;;17.58;10.77;;;7.00;99.90;;;;;;5437352;26;20011;-59
2024/04/26 00:40:11;;;;;;;16.08;9.90;;;7.00;99.90;;;;;;5431287;26;20546;-59
2024/04/26 00:42:38;;;;;;;17.52;11.13;;;6.90;99.90;;;;;;5441826;26;20087;-59
2024/04/26 00:45:06;;;;;;;20.42;11.25;;;6.90;99.90;;;;;;5377207;26;20341;-59
2024/04/26 00:47:33;;;;;;;16.77;10.23;;;6.90;99.90;;;;;;5432265;26;20003;-58
2024/04/26 00:50:00;;;;;;;16.30;10.30;;;6.90;99.90;;;;;;5378742;26;20067;-60
2024/04/26 00:52:27;;;;;;;17.73;10.20;;;6.90;99.90;;;;;;5400493;26;19995;-59
2024/04/26 00:54:54;;;;;;;16.95;11.00;;;6.90;99.90;;;;;;5407795;26;20029;-58
2024/04/26 00:57:21;;;;;;;16.02;11.25;;;6.90;99.90;;;;;;5433193;26;20003;-59
2024/04/26 00:59:48;;;;;;;15.27;10.40;;;6.80;99.90;;;;;;5439438;26;20503;-58
2024/04/26 01:02:16;;;;;;;18.88;9.85;;;6.80;99.90;;;;;;5406585;26;20057;-58
2024/04/26 01:04:43;;;;;;;18.65;11.15;;;6.70;99.90;;;;;;5406610;26;20010;-59
2024/04/26 01:07:10;;;;;;;18.10;11.23;;;6.60;99.90;;;;;;5427917;26;20727;-58
2024/04/26 01:09:37;;;;;;;14.90;10.50;;;6.60;99.90;;;;;;5433760;26;20446;-59
2024/04/26 01:12:04;;;;;;;19.13;10.60;;;6.60;99.90;;;;;;5422762;26;20014;-59
2024/04/26 01:14:31;;;;;;;20.42;11.45;;;6.60;99.90;;;;;;5438485;26;20011;-59
2024/04/26 01:16:58;;;;;;;18.95;11.35;;;6.60;99.90;;;;;;5436409;26;19998;-58
2024/04/26 01:19:25;;;;;;;16.42;10.90;;;6.50;99.90;;;;;;5435962;26;20015;-58
2024/04/26 01:22:00;;;;;;;16.67;10.07;;;6.50;99.90;;;;;;5441268;26;19995;-60
2024/04/26 01:24:27;;;;;;;16.80;10.07;;;6.50;99.90;;;;;;5429583;26;19999;-59
2024/04/26 01:26:54;;;;;;;19.33;10.18;;;6.50;99.90;;;;;;5409554;26;20014;-59
2024/04/26 01:29:21;;;;;;;16.50;11.43;;;6.50;99.90;;;;;;5439990;26;20366;-59
2024/04/26 01:31:47;;;;;;;18.00;11.18;;;6.50;99.90;;;;;;5441224;26;20116;-59
2024/04/26 01:34:14;;;;;;;16.13;9.93;;;6.40;99.90;;;;;;5433314;26;20087;-59
2024/04/26 01:36:41;;;;;;;16.30;10.20;;;6.40;99.90;;;;;;5437269;26;20053;-59
2024/04/26 01:39:08;;;;;;;13.90;9.32;;;6.40;99.90;;;;;;5434326;26;20071;-59
2024/04/26 01:41:35;;;;;;;16.38;10.43;;;6.40;99.90;;;;;;5405125;26;20366;-59
2024/04/26 01:44:02;;;;;;;16.73;9.82;;;6.40;99.90;;;;;;5422059;26;20007;-60
2024/04/26 01:46:29;;;;;;;16.48;9.35;;;6.40;99.90;;;;;;5422943;26;20018;-59
2024/04/26 01:48:56;;;;;;;15.90;9.68;;;6.30;99.90;;;;;;5434429;26;20076;-58
2024/04/26 01:51:23;;;;;;;14.90;8.95;;;6.40;99.90;;;;;;5434072;26;20475;-59
2024/04/26 01:53:50;;;;;;;16.02;9.00;;;6.40;99.90;;;;;;5425345;26;20003;-59
2024/04/26 01:56:17;;;;;;;15.15;9.48;;;6.40;99.90;;;;;;5433219;26;20003;-59
2024/04/26 01:58:43;;;;;;;13.73;8.80;;;6.40;99.90;;;;;;5439446;26;20106;-60
2024/04/26 02:01:10;;;;;;;14.05;9.52;;;6.30;99.90;;;;;;5432116;26;20493;-58
2024/04/26 02:03:37;;;;;;;16.70;8.25;;;6.30;99.90;;;;;;5442148;26;20015;-59
2024/04/26 02:06:05;;;;;;;12.43;7.40;;;6.30;99.90;;;;;;5430896;26;20002;-59
2024/04/26 02:08:32;;;;;;;13.55;7.93;;;6.30;99.90;;;;;;5434472;26;20008;-58
2024/04/26 02:10:59;;;;;;;13.77;8.48;;;6.30;99.90;;;;;;5410403;26;20002;-59
2024/04/26 02:13:26;;;;;;;20.90;8.88;;;6.20;99.90;;;;;;5419408;26;20708;-57
2024/04/26 02:15:52;;;;;;;13.15;8.38;;;6.10;99.90;;;;;;5442102;26;20018;-59
2024/04/26 02:18:19;;;;;;;15.18;8.30;;;6.30;99.90;;;;;;5443666;26;20132;-59
2024/04/26 02:20:46;;;;;;;17.17;9.23;;;6.10;99.90;;;;;;5403361;26;20023;-59
2024/04/26 02:23:13;;;;;;;12.25;7.43;;;6.20;99.90;;;;;;5437312;26;20788;-58
2024/04/26 02:25:40;;;;;;;16.98;8.73;;;6.20;99.90;;;;;;5418484;26;20026;-59
2024/04/26 02:28:07;;;;;;;15.77;8.70;;;6.20;99.90;;;;;;5432326;26;19996;-57
2024/04/26 02:30:34;;;;;;;11.02;7.35;;;6.20;99.90;;;;;;5400407;26;20010;-59
2024/04/26 02:33:01;;;;;;;15.10;7.05;;;6.20;99.90;;;;;;5438369;26;19995;-59
2024/04/26 02:35:28;;;;;;;12.75;7.90;;;6.10;99.90;;;;;;5433931;26;20017;-59
2024/04/26 02:37:55;;;;;;;11.07;6.63;;;6.20;99.90;;;;;;5439522;26;20022;-59
2024/04/26 02:40:22;;;;;;;12.63;6.70;;;6.20;99.90;;;;;;5436832;26;20071;-59
2024/04/26 02:42:49;;;;;;;9.55;6.32;;;6.20;99.90;;;;;;5429992;26;20068;-59
2024/04/26 02:45:15;;;;;;;10.48;6.95;;;6.20;99.90;;;;;;5423166;26;19999;-59
2024/04/26 02:47:42;;;;;;;12.43;6.50;;;6.10;99.90;;;;;;5433503;26;19999;-60
2024/04/26 02:50:09;;;;;;;10.93;5.10;;;6.20;99.90;;;;;;5422304;26;20003;-59
2024/04/26 02:52:36;;;;;;;11.52;6.43;;;6.10;99.90;;;;;;5426538;26;20367;-59
2024/04/26 02:55:04;;;;;;;8.85;5.82;;;6.10;99.90;;;;;;5403865;26;20497;-59
2024/04/26 02:57:30;;;;;;;8.52;5.30;;;6.10;99.90;;;;;;5435893;26;20031;-58
2024/04/26 02:59:57;;;;;;;10.38;4.95;;;6.10;99.90;;;;;;5423727;26;19994;-59
2024/04/26 03:02:25;;;;;;;9.70;5.72;;;6.10;99.90;;;;;;5419313;26;20044;-60
2024/04/26 03:04:52;;;;;;;12.95;6.30;;;6.10;99.90;;;;;;5432879;26;19996;-60
2024/04/26 03:07:19;;;;;;;10.07;6.13;;;6.10;99.90;;;;;;5429708;26;20011;-58
2024/04/26 03:09:46;;;;;;;9.32;6.22;;;6.00;99.90;;;;;;5439846;26;20015;-63
2024/04/26 03:12:12;;;;;;;9.15;5.68;;;6.00;99.90;;;;;;5425541;26;20134;-60
2024/04/26 03:14:40;;;;;;;10.55;5.05;;;6.00;99.90;;;;;;5378732;26;20013;-59
2024/04/26 03:17:07;;;;;;;10.95;5.68;;;6.00;99.90;;;;;;5430200;26;20011;-62
2024/04/26 03:19:34;;;;;;;7.28;4.40;;;6.10;99.90;;;;;;5421457;26;20639;-59
2024/04/26 03:22:01;;;;;;;8.73;5.05;;;6.00;99.90;;;;;;5425207;26;19995;-60
2024/04/26 03:24:28;;;;;;;11.07;5.50;;;6.00;99.90;;;;;;5433957;26;20011;-59
2024/04/26 03:26:54;;;;;;;9.38;5.43;;;6.00;99.90;;;;;;5433850;26;19995;-59
2024/04/26 03:29:21;;;;;;;12.20;5.47;;;6.00;99.90;;;;;;5434658;26;20017;-60
2024/04/26 03:31:48;;;;;;;9.23;4.72;;;6.00;99.90;;;;;;5424600;26;20011;-59
2024/04/26 03:34:15;;;;;;;8.88;5.15;;;5.90;99.90;;;;;;5422982;26;20000;-59
2024/04/26 03:36:42;;;;;;;8.68;5.22;;;6.00;99.90;;;;;;5422477;26;20010;-59
2024/04/26 03:39:09;;;;;;;7.90;4.93;;;6.00;99.90;;;;;;5433445;26;20506;-60
2024/04/26 03:41:36;;;;;;;9.95;4.97;;;5.90;99.90;;;;;;5431829;26;20132;-58
2024/04/26 03:44:03;;;;;;;11.02;6.05;;;5.90;99.90;;;;;;5430010;26;20077;-63
2024/04/26 03:46:30;;;;;;;10.25;5.90;;;5.80;99.90;;;;;;5423607;26;20739;-58
2024/04/26 03:48:57;;;;;;;11.60;6.00;;;5.80;99.90;;;;;;5372137;26;19999;-59
2024/04/26 03:51:24;;;;;;;8.27;5.43;;;5.80;99.90;;;;;;5428765;26;19999;-59
2024/04/26 03:53:52;;;;;;;10.13;5.03;;;5.80;99.90;;;;;;5399673;26;19999;-57
2024/04/26 03:56:19;;;;;;;9.65;5.43;;;5.90;99.90;;;;;;5426816;26;20112;-57
2024/04/26 03:58:45;;;;;;;14.20;6.13;;;5.80;99.90;;;;;;5424623;26;20534;-59
2024/04/26 04:01:12;;;;;;;8.70;5.25;;;5.80;99.90;;;;;;5427150;26;20343;-59
2024/04/26 04:03:39;;;;;;;8.27;5.32;;;5.80;99.90;;;;;;5426890;26;20003;-59
2024/04/26 04:06:06;;;;;;;12.30;6.03;;;5.90;99.90;;;;;;5432173;26;20007;-60
2024/04/26 04:08:33;;;;;;;8.50;5.30;;;5.80;99.90;;;;;;5426323;26;20513;-58
2024/04/26 04:11:00;;;;;;;10.85;5.53;;;5.80;99.90;;;;;;5425829;26;20354;-59
2024/04/26 04:13:28;;;;;;;9.70;5.30;;;5.80;99.90;;;;;;5428164;26;20002;-58
2024/04/26 04:15:55;;;;;;;10.07;5.95;;;5.70;99.90;;;;;;5430319;26;20003;-59
2024/04/26 04:18:22;;;;;;;8.43;5.32;;;5.70;99.90;;;;;;5422949;26;20007;-59
2024/04/26 04:20:50;;;;;;;10.52;5.38;;;5.70;99.90;;;;;;5418278;26;20019;-61
2024/04/26 04:23:17;;;;;;;9.48;5.70;;;5.70;99.90;;;;;;5431023;26;20018;-58
2024/04/26 04:25:44;;;;;;;11.35;5.95;;;5.60;99.90;;;;;;5436440;26;20010;-61
2024/04/26 04:28:11;;;;;;;16.02;6.88;;;5.70;99.90;;;;;;5423096;26;20075;-61
2024/04/26 04:30:38;;;;;;;9.05;5.90;;;5.70;99.90;;;;;;5433015;26;19995;-58
2024/04/26 04:33:05;;;;;;;8.90;5.65;;;5.70;99.90;;;;;;5392111;26;20022;-58
2024/04/26 04:35:32;;;;;;;12.02;6.10;;;5.70;99.90;;;;;;5426709;26;20125;-59
2024/04/26 04:38:02;;;;;;;11.65;5.47;;;5.70;99.90;;;;;;5432638;26;20070;-59
2024/04/26 04:40:29;;;;;;;9.93;6.13;;;5.60;99.90;;;;;;5424366;26;20007;-59
2024/04/26 04:42:56;;;;;;;12.00;5.95;;;5.60;99.90;;;;;;5427806;26;20045;-58
2024/04/26 04:45:23;;;;;;;15.30;6.43;;;5.60;99.90;;;;;;5399145;26;20010;-60
2024/04/26 04:47:50;;;;;;;12.98;6.15;;;5.60;99.90;;;;;;5435354;26;20018;-60
2024/04/26 04:50:17;;;;;;;14.25;7.00;;;5.60;99.90;;;;;;5395296;26;20685;-60
2024/04/26 04:52:44;;;;;;;9.35;5.97;;;5.50;99.90;;;;;;5424187;26;20415;-60
2024/04/26 04:55:11;;;;;;;12.43;7.10;;;5.60;99.90;;;;;;5426836;26;20000;-59
2024/04/26 04:57:38;;;;;;;10.93;6.20;;;5.60;99.90;;;;;;5422789;26;20019;-60
2024/04/26 05:00:06;;;;;;;9.00;5.63;;;5.60;99.90;;;;;;5377706;26;20000;-60
2024/04/26 05:02:33;;;;;;;10.18;6.45;;;5.60;99.90;;;;;;5431262;26;20003;-58
2024/04/26 05:05:00;;;;;;;11.65;7.22;;;5.70;99.90;;;;;;5427834;26;20003;-59
2024/04/26 05:07:27;;;;;;;12.05;7.32;;;5.70;99.90;;;;;;5431380;26;20035;-58
2024/04/26 05:09:54;;;;;;;18.10;7.60;;;5.70;99.90;;;;;;5430883;26;20067;-59
2024/04/26 05:12:21;;;;;;;10.98;7.30;;;5.70;99.90;;;;;;5422963;26;20046;-60
2024/04/26 05:14:48;;;;;;;12.75;7.22;;;5.70;99.90;;;;;;5435732;26;20003;-58
2024/04/26 05:17:15;;;;;;;11.13;6.40;;;5.70;99.90;;;;;;5439835;26;20014;-59
2024/04/26 05:19:42;;;;;;;15.73;7.63;;;5.60;99.90;;;;;;5440877;26;20003;-59
2024/04/26 05:22:11;;;;;;;14.50;7.55;;;5.60;99.90;;;;;;5440484;26;20013;-60
2024/04/26 05:24:43;;;;;;;13.70;6.10;;;5.60;99.90;;;;;;5415303;26;20361;-58
2024/04/26 05:27:15;;;;;;;14.70;7.53;;;5.70;99.90;;;;;;5434180;26;20075;-58
2024/04/26 05:29:46;;;;;;;13.50;7.78;;;5.70;99.90;;;;;;5439567;26;20007;-59
2024/04/26 05:32:16;;;;;;;15.18;7.70;;;5.70;99.90;;;;;;5430992;26;20007;-59
2024/04/26 05:34:46;;;;;;;9.35;6.07;;;5.70;99.90;;;;;;5442607;26;20043;-59
2024/04/26 05:37:16;;;;;;;16.63;7.47;;;5.70;99.90;;;;;;5433638;26;20103;-62
2024/04/26 05:39:43;;;;;;;12.45;6.65;;;5.80;99.90;;;;;;5438921;26;19998;-60
2024/04/26 05:42:10;;;;;;;11.15;7.43;;;5.90;99.90;;;;;;5417701;26;20007;-60
2024/04/26 05:44:38;;;;;;;17.13;7.20;;;5.90;99.90;;;;;;5426483;26;20012;-59
2024/04/26 05:47:06;;;;;;;15.02;7.30;;;6.00;99.90;;;;;;5431203;26;20007;-57
2024/04/26 05:49:33;;;;;;;10.38;6.57;;;6.00;99.90;;;;;;5431100;26;20018;-58
2024/04/26 05:52:00;;;;;;;11.32;6.10;;;6.00;99.90;;;;;;5431401;26;19999;-58
2024/04/26 05:54:27;;;;;;;13.68;6.43;;;6.00;99.90;;;;;;5434779;26;20071;-58
2024/04/26 05:56:54;;;;;;;14.10;6.65;;;6.10;99.90;;;;;;5437180;26;20080;-59
2024/04/26 05:59:21;;;;;;;11.68;7.55;;;6.10;99.90;;;;;;5434889;26;20079;-59
2024/04/26 06:01:47;;;;;;;13.00;7.18;;;6.10;99.90;;;;;;5416244;26;20004;-57
2024/04/26 06:04:14;;;;;;;17.45;8.02;;;6.20;99.90;;;;;;5432996;26;19998;-58
2024/04/26 06:06:45;;;;;;;10.43;6.68;;;6.20;99.90;;;;;;5438308;26;19999;-58
2024/04/26 06:09:12;;;;;;;12.45;7.03;;;6.20;99.90;;;;;;5428222;26;20007;-58
2024/04/26 06:11:40;;;;;;;9.70;6.47;;;6.30;99.90;;;;;;5424074;26;20011;-59
2024/04/26 06:14:07;;;;;;;13.05;7.05;;;6.30;99.90;;;;;;5430959;26;20016;-58
2024/04/26 06:16:33;;;;;;;15.13;7.05;;;6.40;99.90;;;;;;5436794;26;20083;-59
2024/04/26 06:19:00;;;;;;;10.05;6.25;;;6.40;99.90;;;;;;5408497;26;20072;-59
2024/04/26 06:21:28;;;;;;;20.38;7.28;;;6.40;99.90;;;;;;5415219;26;20002;-58
2024/04/26 06:23:55;;;;;;;13.05;6.28;;;6.50;99.90;;;;;;5431780;26;20014;-60
2024/04/26 06:26:22;;;;;;;15.68;6.72;;;6.50;99.90;;;;;;5436232;26;20011;-60
2024/04/26 06:28:50;;;;;;;12.70;6.00;;;6.60;99.90;;;;;;5423861;26;20018;-58
2024/04/26 06:31:17;;;;;;;11.93;5.78;;;6.70;99.90;;;;;;5430784;26;20006;-60
2024/04/26 06:33:44;;;;;;;9.80;5.78;;;6.70;99.90;;;;;;5389814;26;20010;-64
2024/04/26 06:36:12;;;;;;;13.52;6.32;;;6.70;99.90;;;;;;5431625;26;20058;-60
2024/04/26 06:38:39;;;;;;;14.70;6.47;;;6.80;99.90;;;;;;5430568;26;20026;-59
2024/04/26 06:41:06;;;;;;;14.07;6.10;;;6.90;99.90;;;;;;5430017;26;20010;-58
2024/04/26 06:43:32;;;;;;;8.98;5.93;;;6.90;99.90;;;;;;5429188;26;20502;-59
2024/04/26 06:46:01;;;;;;;9.25;5.70;;;6.90;99.90;;;;;;5434780;26;20014;-58
2024/04/26 06:48:28;;;;;;;12.68;6.90;;;7.00;99.90;;;;;;5442991;26;20018;-59
2024/04/26 06:50:55;;;;;;;9.82;5.45;;;7.00;99.90;;;;;;5406301;26;20007;-59
2024/04/26 06:53:22;;;;;;;10.70;5.50;;;7.00;99.90;;;;;;5403651;26;20424;-57
2024/04/26 06:55:49;;;;;;;11.15;6.03;;;7.00;99.90;;;;;;5415540;26;20006;-59
2024/04/26 06:58:16;;;;;;;15.15;6.45;;;7.10;99.90;;;;;;5421708;26;20022;-60
2024/04/26 07:00:43;;;;;;;9.18;6.20;;;7.20;99.90;;;;;;5424054;26;20065;-58
2024/04/26 07:03:10;;;;;;;11.23;6.38;;;7.20;99.90;;;;;;5419308;26;20022;-58
2024/04/26 07:05:38;;;;;;;12.93;7.40;;;7.30;99.90;;;;;;5423265;26;20029;-60
2024/04/26 07:08:06;;;;;;;12.93;6.00;;;7.40;99.90;;;;;;5430046;26;20018;-59
2024/04/26 07:10:32;;;;;;;8.73;6.35;;;7.50;99.90;;;;;;5439236;26;19999;-60
2024/04/26 07:12:59;;;;;;;12.13;5.70;;;7.50;99.90;;;;;;5438865;26;20140;-59
2024/04/26 07:15:26;;;;;;;12.27;6.55;;;7.60;99.90;;;;;;5416933;26;20007;-58
2024/04/26 07:17:53;;;;;;;9.27;6.22;;;7.70;99.90;;;;;;5434116;26;20083;-58
2024/04/26 07:20:20;;;;;;;11.48;6.18;;;7.70;99.90;;;;;;5430285;26;19999;-58
2024/04/26 07:22:47;;;;;;;8.60;5.90;;;7.80;99.90;;;;;;5433162;26;19999;-61
2024/04/26 07:25:28;;;;;;;9.27;5.72;;;7.90;99.90;;;;;;5421004;26;20454;-59
2024/04/26 07:27:55;;;;;;;10.55;5.32;;;8.00;99.90;;;;;;5426994;26;20077;-59
2024/04/26 07:30:22;;;;;;;11.15;5.75;;;8.00;99.90;;;;;;5422983;26;20516;-58
2024/04/26 07:32:49;;;;;;;9.50;5.93;;;8.00;99.90;;;;;;5403220;26;20146;-59
2024/04/26 07:35:17;;;;;;;10.20;6.13;;;8.00;99.90;;;;;;5429868;26;20445;-58
2024/04/26 07:37:44;;;;;;;11.88;6.43;;;8.10;99.90;;;;;;5434502;26;20006;-59
2024/04/26 07:40:11;;;;;;;17.95;7.55;;;8.30;99.90;;;;;;5418098;26;19999;-59
2024/04/26 07:42:37;;;;;;;11.38;5.55;;;8.30;99.90;;;;;;5427780;26;20823;-59
2024/04/26 07:45:05;;;;;;;12.88;5.18;;;8.30;99.90;;;;;;5391726;26;20072;-59
2024/04/26 07:47:32;;;;;;;10.68;4.68;;;8.30;99.90;;;;;;5435268;26;20010;-59
2024/04/26 07:49:59;;;;;;;8.63;5.05;;;8.40;99.90;;;;;;5417548;26;20008;-59
2024/04/26 07:52:27;;;;;;;15.90;5.38;;;8.40;99.90;;;;;;5438339;26;20018;-60
2024/04/26 07:54:55;;;;;;;12.82;5.72;;;8.50;99.90;;;;;;5442323;26;20089;-58
2024/04/26 07:57:25;;;;;;;13.05;6.03;;;8.50;99.90;;;;;;5434343;26;20028;-59
2024/04/26 07:59:52;;;;;;;15.77;7.40;;;8.60;99.90;;;;;;5426056;26;20019;-59
2024/04/26 08:02:19;;;;;;;17.50;6.97;;;8.60;99.90;;;;;;5396625;26;20442;-60
2024/04/26 08:04:46;;;;;;;11.20;5.47;;;8.60;99.90;;;;;;5429624;26;20043;-58
2024/04/26 08:07:15;;;;;;;10.82;5.82;;;8.60;99.90;;;;;;5436931;26;20013;-58
2024/04/26 08:09:42;;;;;;;49.40;10.02;;;8.60;99.90;;;;;;5437528;26;20014;-59
2024/04/26 08:12:09;;;;;;;19.08;5.40;;;8.70;99.90;;;;;;5439912;26;20002;-59
2024/04/26 08:14:37;;;;;;;11.77;5.13;;;8.80;99.90;;;;;;5439106;26;20079;-58
2024/04/26 08:17:04;;;;;;;5.55;3.35;;;8.80;99.90;;;;;;5440374;26;20015;-58
2024/04/26 08:19:31;;;;;;;9.13;4.43;;;9.00;99.90;;;;;;5435427;26;20011;-59
2024/04/26 08:21:58;;;;;;;6.03;3.95;;;9.00;99.90;;;;;;5418381;26;20077;-59
2024/04/26 08:24:25;;;;;;;10.68;4.53;;;9.10;99.90;;;;;;5439538;26;20267;-58
2024/04/26 08:26:52;;;;;;;7.03;3.17;;;9.10;99.90;;;;;;5381034;26;20055;-58
2024/04/26 08:29:19;;;;;;;9.85;4.25;;;9.10;99.90;;;;;;5423616;26;20017;-57
2024/04/26 08:31:46;;;;;;;12.05;5.50;;;8.90;99.90;;;;;;5415239;26;20707;-60
2024/04/26 08:34:13;;;;;;;13.65;4.72;;;8.90;99.90;;;;;;5430054;26;20021;-58
2024/04/26 08:36:41;;;;;;;7.72;4.13;;;8.90;99.90;;;;;;5437197;26;20002;-59
2024/04/26 08:39:09;;;;;;;12.13;4.25;;;8.90;99.90;;;;;;5437316;26;20324;-59
2024/04/26 08:41:36;;;;;;;8.90;4.15;;;8.90;99.90;;;;;;5418618;26;20006;-59
2024/04/26 08:44:03;;;;;;;10.98;4.70;;;8.90;99.90;;;;;;5413871;26;20191;-60
2024/04/26 08:46:30;;;;;;;8.45;4.18;;;8.90;99.90;;;;;;5409116;26;20306;-59
2024/04/26 08:49:10;;;;;;;6.68;3.58;;;8.90;99.90;;;;;;5426337;26;20009;-57
2024/04/26 08:51:37;;;;;;;11.75;4.18;;;9.00;99.90;;;;;;5430146;26;20014;-60
2024/04/26 08:54:04;;;;;;;9.65;3.58;;;9.00;99.90;;;;;;5410516;26;20030;-58
2024/04/26 08:56:35;;;;;;;5.78;3.55;;;9.00;99.90;;;;;;5404827;26;20014;-59
2024/04/26 08:59:02;;;;;;;11.50;3.83;;;9.20;99.90;;;;;;5404901;26;20034;-58
2024/04/26 09:01:29;;;;;;;9.52;3.90;;;9.40;99.90;;;;;;5408815;26;20469;-58
2024/04/26 09:03:56;;;;;;;15.10;5.47;;;9.30;99.90;;;;;;5406427;26;20025;-59
2024/04/26 09:06:23;;;;;;;6.57;3.60;;;9.40;99.90;;;;;;5429236;26;20030;-59
2024/04/26 09:08:50;;;;;;;15.77;4.45;;;9.50;99.90;;;;;;5386174;26;20003;-59
2024/04/26 09:11:17;;;;;;;6.50;3.78;;;9.50;99.90;;;;;;5440426;26;20027;-58
2024/04/26 09:13:44;;;;;;;6.90;3.70;;;9.60;99.90;;;;;;5438473;26;20096;-58
2024/04/26 09:16:11;;;;;;;7.90;3.80;;;9.60;99.90;;;;;;5438599;26;20502;-59
2024/04/26 09:18:38;;;;;;;10.63;4.43;;;9.80;99.90;;;;;;5434430;26;20015;-58
2024/04/26 09:21:06;;;;;;;8.43;4.22;;;9.90;99.90;;;;;;5423623;26;20003;-58
2024/04/26 09:23:33;;;;;;;6.72;4.35;;;10.00;99.90;;;;;;5439153;26;20013;-58
2024/04/26 09:26:06;;;;;;;8.52;3.72;;;10.00;99.90;;;;;;5432039;26;20442;-59
2024/04/26 09:28:36;;;;;;;17.70;4.50;;;10.00;99.90;;;;;;5425007;26;20356;-59
2024/04/26 09:31:05;;;;;;;6.68;4.55;;;9.90;99.90;;;;;;5428085;26;20007;-59
2024/04/26 09:33:33;;;;;;;15.02;4.03;;;9.90;99.90;;;;;;5437493;26;20099;-59
2024/04/26 09:36:00;;;;;;;6.68;4.35;;;9.90;99.90;;;;;;5427852;26;20031;-59
2024/04/26 09:38:30;;;;;;;8.27;4.68;;;9.90;99.90;;;;;;5380276;26;20013;-59
2024/04/26 09:40:57;;;;;;;8.73;3.95;;;9.90;99.90;;;;;;5438302;26;20110;-60
2024/04/26 09:43:24;;;;;;;6.88;4.25;;;10.00;99.90;;;;;;5433697;26;20014;-59
2024/04/26 09:45:50;;;;;;;6.43;4.25;;;9.90;99.90;;;;;;5393691;26;19999;-60
2024/04/26 09:48:17;;;;;;;9.30;4.80;;;9.90;99.90;;;;;;5405668;26;20101;-60
2024/04/26 09:50:45;;;;;;;5.28;3.47;;;10.00;99.90;;;;;;5426374;26;19999;-59
2024/04/26 09:53:11;;;;;;;6.07;4.28;;;10.10;99.90;;;;;;5428153;26;20275;-59
2024/04/26 09:55:38;;;;;;;16.73;4.63;;;10.20;99.90;;;;;;5384582;26;20454;-60
2024/04/26 09:58:05;;;;;;;8.48;4.60;;;10.50;99.90;;;;;;5439963;26;20080;-58
2024/04/26 10:00:33;;;;;;;6.95;4.05;;;10.60;99.90;;;;;;5412222;26;20313;-58
2024/04/26 10:03:01;;;;;;;10.25;4.35;;;10.60;99.90;;;;;;5398609;26;20459;-58
2024/04/26 10:05:29;;;;;;;6.93;4.65;;;10.70;99.90;;;;;;5407765;26;20072;-59
2024/04/26 10:07:57;;;;;;;10.73;6.20;;;10.80;99.90;;;;;;5436196;26;20021;-57
2024/04/26 10:10:28;;;;;;;7.80;5.43;;;10.80;99.90;;;;;;5403188;26;20004;-58
2024/04/26 10:13:03;;;;;;;13.25;4.88;;;10.80;99.90;;;;;;5428387;26;20010;-58
2024/04/26 10:15:35;;;;;;;16.40;5.18;;;10.70;99.90;;;;;;5414240;26;19999;-59
2024/04/26 10:18:03;;;;;;;10.05;5.70;;;10.70;99.90;;;;;;5428664;26;19999;-59
2024/04/26 10:20:43;;;;;;;12.23;4.95;;;10.60;99.90;;;;;;5406668;26;19999;-57
2024/04/26 10:23:14;;;;;;;8.13;5.10;;;10.50;99.90;;;;;;5440306;26;19999;-58
2024/04/26 10:25:41;;;;;;;10.98;5.45;;;10.50;99.90;;;;;;5429995;26;20040;-58
2024/04/26 10:28:09;;;;;;;10.45;5.57;;;10.50;99.90;;;;;;5432401;26;20008;-59
2024/04/26 10:30:43;;;;;;;15.23;4.97;;;10.50;99.90;;;;;;5441974;26;19995;-60
2024/04/26 10:33:10;;;;;;;9.35;4.07;;;10.50;99.90;;;;;;5397513;26;19998;-60
2024/04/26 10:35:37;;;;;;;12.25;6.43;;;10.40;99.90;;;;;;5438913;26;20164;-59
2024/04/26 10:38:06;;;;;;;9.73;4.03;;;10.40;99.90;;;;;;5442888;26;20340;-60
2024/04/26 10:40:46;;;;;;;8.80;5.22;;;10.40;99.90;;;;;;5435663;26;20110;-60
2024/04/26 10:43:21;;;;;;;9.77;4.72;;;10.50;99.90;;;;;;5438924;26;20011;-58
2024/04/26 10:45:52;;;;;;;10.02;5.00;;;10.60;99.90;;;;;;5410252;26;20026;-59
2024/04/26 10:48:20;;;;;;;10.80;5.20;;;10.70;99.90;;;;;;5423516;26;19999;-59
2024/04/26 10:50:47;;;;;;;11.10;5.28;;;10.80;99.90;;;;;;5438681;26;20534;-60
2024/04/26 10:53:14;;;;;;;9.50;5.13;;;10.70;99.90;;;;;;5439510;26;20318;-57
2024/04/26 10:55:41;;;;;;;9.05;5.07;;;10.90;99.90;;;;;;5440138;26;20027;-59
2024/04/26 10:58:10;;;;;;;12.10;5.43;;;10.90;99.90;;;;;;5428769;26;20146;-59
2024/04/26 11:00:39;;;;;;;7.57;4.50;;;11.00;99.90;;;;;;5421231;26;20849;-59
2024/04/26 11:03:08;;;;;;;6.13;4.07;;;11.10;99.90;;;;;;5408777;26;19995;-59
2024/04/26 11:05:43;;;;;;;10.80;5.78;;;11.20;99.90;;;;;;5410076;26;20039;-60
2024/04/26 11:08:11;;;;;;;13.43;5.78;;;11.20;99.90;;;;;;5430533;26;20039;-58
2024/04/26 11:10:39;;;;;;;11.48;5.10;;;11.20;99.90;;;;;;5437317;26;20698;-58
2024/04/26 11:13:06;;;;;;;6.80;4.80;;;11.20;99.90;;;;;;5379816;26;20334;-58
2024/04/26 11:15:33;;;;;;;10.40;4.82;;;11.30;99.90;;;;;;5436325;26;20245;-60
2024/04/26 11:18:00;;;;;;;6.55;4.07;;;11.50;99.90;;;;;;5439602;26;20445;-59
2024/04/26 11:20:27;;;;;;;14.55;4.90;;;11.60;99.90;;;;;;5434320;26;20023;-60
2024/04/26 11:22:54;;;;;;;5.10;3.53;;;11.60;99.90;;;;;;5422360;26;20006;-58
2024/04/26 11:25:21;;;;;;;7.07;3.70;;;11.70;99.90;;;;;;5432780;26;20160;-65
2024/04/26 11:27:48;;;;;;;7.82;4.57;;;11.90;99.90;;;;;;5423419;26;20010;-59
2024/04/26 11:30:15;;;;;;;9.30;5.80;;;12.00;99.90;;;;;;5409070;26;20011;-60
2024/04/26 11:32:42;;;;;;;6.13;4.53;;;12.00;99.90;;;;;;5435908;26;20298;-57
2024/04/26 11:35:09;;;;;;;8.15;4.65;;;12.00;99.90;;;;;;5427112;26;20003;-60
2024/04/26 11:37:36;;;;;;;10.50;6.00;;;12.00;99.90;;;;;;5432791;26;20079;-60
2024/04/26 11:40:06;;;;;;;9.90;4.82;;;11.90;99.90;;;;;;5437307;26;20013;-59
2024/04/26 11:42:33;;;;;;;7.45;4.32;;;11.90;99.90;;;;;;5441277;26;19995;-59
2024/04/26 11:45:02;;;;;;;7.10;3.67;;;11.80;99.90;;;;;;5437603;26;20013;-58
2024/04/26 11:47:29;;;;;;;9.45;4.40;;;11.90;99.90;;;;;;5441557;26;20057;-59
2024/04/26 11:49:58;;;;;;;9.60;4.13;;;11.90;99.90;;;;;;5408845;26;20014;-58
2024/04/26 11:52:26;;;;;;;4.53;3.38;;;12.10;99.90;;;;;;5432196;26;20006;-59
2024/04/26 11:54:53;;;;;;;5.15;4.28;;;12.20;99.90;;;;;;5421283;26;20018;-59
2024/04/26 11:57:20;;;;;;;9.52;4.28;;;12.30;99.90;;;;;;5424606;26;19995;-63
2024/04/26 11:59:47;;;;;;;14.40;4.35;;;12.30;99.90;;;;;;5430638;26;20004;-61
2024/04/26 12:02:17;;;;;;;13.63;4.28;;;12.50;99.90;;;;;;5441572;26;20022;-59
2024/04/26 12:04:45;;;;;;;7.15;3.85;;;12.70;99.90;;;;;;5430562;26;20499;-59
2024/04/26 12:07:13;;;;;;;6.22;2.97;;;12.90;99.90;;;;;;5440033;26;20002;-59
2024/04/26 12:09:40;;;;;;;8.10;3.70;;;13.00;99.90;;;;;;5442560;26;20010;-59
2024/04/26 12:12:07;;;;;;;6.95;3.80;;;13.10;99.90;;;;;;5441089;26;20113;-60
2024/04/26 12:14:37;;;;;;;5.78;3.50;;;13.10;99.90;;;;;;5439243;26;20458;-60
2024/04/26 12:17:04;;;;;;;7.50;3.75;;;13.30;99.90;;;;;;5438687;26;20012;-58
2024/04/26 12:19:31;;;;;;;4.55;3.40;;;13.30;99.90;;;;;;5442237;26;20003;-59
2024/04/26 12:21:59;;;;;;;7.13;3.17;;;13.40;99.90;;;;;;5437311;26;20046;-58
2024/04/26 12:24:26;;;;;;;7.05;4.07;;;13.60;99.90;;;;;;5422867;26;20047;-58
2024/04/26 12:26:53;;;;;;;7.43;4.00;;;13.90;99.90;;;;;;5397671;26;20639;-56
2024/04/26 12:29:22;;;;;;;5.03;3.53;;;14.20;99.90;;;;;;5433700;26;20448;-56
2024/04/26 12:31:52;;;;;;;5.97;3.03;;;14.30;98.70;;;;;;5441917;26;19995;-58
2024/04/26 12:34:19;;;;;;;6.22;3.45;;;14.20;99.90;;;;;;5441329;26;20009;-58
2024/04/26 12:36:47;;;;;;;6.97;3.50;;;14.40;99.90;;;;;;5441319;26;20002;-58
2024/04/26 12:39:14;;;;;;;7.50;3.55;;;14.50;99.90;;;;;;5418076;26;19998;-59
2024/04/26 12:41:42;;;;;;;7.18;3.50;;;14.60;99.90;;;;;;5441350;26;20021;-58
2024/04/26 12:44:10;;;;;;;4.32;3.47;;;14.60;99.20;;;;;;5420183;26;20034;-59
2024/04/26 12:46:37;;;;;;;9.18;4.50;;;14.60;99.90;;;;;;5440377;26;20092;-59
2024/04/26 12:49:04;;;;;;;5.30;3.58;;;14.80;99.90;;;;;;5432981;26;19999;-58